Time;durP1;ratioP1;P1;durP2;ratioP2;P2;SDS_P1;SDS_P2;PMS_P1;PMS_P2;Temp;Humidity;BMP_temperature;BMP_pressure;BME280_temperature;BME280_humidity;BME280_pressure;Samples;Min_cycle;Max_cycle;Signal;HPM_P1;HPM_P2
2021/10/05 00:01:09;;;;;;;9.70;5.85;;;;;;;;;;5053570;28;20556;-70
2021/10/05 00:03:35;;;;;;;10.38;5.82;;;;;;;;;;5054236;28;20430;-71
2021/10/05 00:06:01;;;;;;;9.65;5.97;;;;;;;;;;5054375;28;20032;-71
2021/10/05 00:08:27;;;;;;;9.57;5.95;;;;;;;;;;5036166;28;20135;-70
2021/10/05 00:10:53;;;;;;;9.25;5.35;;;;;;;;;;5035124;28;20051;-70
2021/10/05 00:13:19;;;;;;;10.32;5.78;;;;;;;;;;5036370;28;20573;-70
2021/10/05 00:15:45;;;;;;;8.40;5.22;;;;;;;;;;5054082;28;20087;-70
2021/10/05 00:18:11;;;;;;;7.03;5.22;;;;;;;;;;5052363;28;20025;-70
2021/10/05 00:20:36;;;;;;;11.38;5.75;;;;;;;;;;5035346;28;20442;-70
2021/10/05 00:23:02;;;;;;;12.93;5.38;;;;;;;;;;5053511;28;20033;-71
2021/10/05 00:25:28;;;;;;;9.07;6.10;;;;;;;;;;5035950;28;20024;-70
2021/10/05 00:27:54;;;;;;;11.77;6.05;;;;;;;;;;5054102;28;20036;-70
2021/10/05 00:30:20;;;;;;;11.82;6.45;;;;;;;;;;5053009;28;20028;-71
2021/10/05 00:32:46;;;;;;;8.05;5.80;;;;;;;;;;5053471;28;20079;-70
2021/10/05 00:35:12;;;;;;;7.15;4.95;;;;;;;;;;5035441;28;20028;-71
2021/10/05 00:37:38;;;;;;;9.88;6.20;;;;;;;;;;5053645;28;20097;-71
2021/10/05 00:40:05;;;;;;;8.45;5.55;;;;;;;;;;5052847;28;20429;-71
2021/10/05 00:42:31;;;;;;;8.18;5.45;;;;;;;;;;5035635;28;20037;-71
2021/10/05 00:44:57;;;;;;;10.43;6.38;;;;;;;;;;5053271;28;20078;-71
2021/10/05 00:47:23;;;;;;;7.97;5.82;;;;;;;;;;5053624;28;20118;-71
2021/10/05 00:49:51;;;;;;;8.07;4.82;;;;;;;;;;5051483;28;20032;-71
2021/10/05 00:52:18;;;;;;;10.15;4.97;;;;;;;;;;5053198;28;20037;-71
2021/10/05 00:54:45;;;;;;;10.20;6.38;;;;;;;;;;5053235;28;20096;-71
2021/10/05 00:57:12;;;;;;;13.85;5.65;;;;;;;;;;5053215;28;20040;-71
2021/10/05 00:59:38;;;;;;;9.45;5.50;;;;;;;;;;5034538;28;20078;-71
2021/10/05 01:02:14;;;;;;;8.40;5.55;;;;;;;;;;5035330;28;20029;-71
2021/10/05 01:04:41;;;;;;;8.90;5.53;;;;;;;;;;5053294;28;20025;-70
2021/10/05 01:07:15;;;;;;;10.40;5.40;;;;;;;;;;5052882;28;20471;-70
2021/10/05 01:09:41;;;;;;;7.25;5.15;;;;;;;;;;5034349;28;20044;-71
2021/10/05 01:12:07;;;;;;;9.07;5.30;;;;;;;;;;5034957;28;20362;-71
2021/10/05 01:14:33;;;;;;;8.43;5.07;;;;;;;;;;5035042;28;20035;-71
2021/10/05 01:17:00;;;;;;;6.38;5.20;;;;;;;;;;5032893;28;20025;-71
2021/10/05 01:19:26;;;;;;;12.77;5.90;;;;;;;;;;5034175;28;20044;-71
2021/10/05 01:21:52;;;;;;;8.70;5.35;;;;;;;;;;5052651;28;20029;-71
2021/10/05 01:24:19;;;;;;;13.63;7.85;;;;;;;;;;5052642;28;20548;-71
2021/10/05 01:26:45;;;;;;;10.18;6.68;;;;;;;;;;5034527;28;20029;-71
2021/10/05 01:29:13;;;;;;;10.00;5.68;;;;;;;;;;5051763;28;20031;-71
2021/10/05 01:31:40;;;;;;;10.75;5.78;;;;;;;;;;5034626;28;20028;-70
2021/10/05 01:34:06;;;;;;;10.02;5.68;;;;;;;;;;5034536;28;20025;-71
2021/10/05 01:36:34;;;;;;;11.52;6.03;;;;;;;;;;5052469;28;20025;-71
2021/10/05 01:39:00;;;;;;;10.27;6.65;;;;;;;;;;5051475;28;20021;-72
2021/10/05 01:41:26;;;;;;;8.23;5.78;;;;;;;;;;5052297;28;20147;-71
2021/10/05 01:43:52;;;;;;;9.95;6.25;;;;;;;;;;5034592;28;20028;-70
2021/10/05 01:46:18;;;;;;;6.80;5.40;;;;;;;;;;5052275;28;20025;-70
2021/10/05 01:48:45;;;;;;;8.15;5.25;;;;;;;;;;5052177;28;20403;-70
2021/10/05 01:51:11;;;;;;;9.77;4.97;;;;;;;;;;5051274;28;20491;-71
2021/10/05 01:53:37;;;;;;;7.00;5.10;;;;;;;;;;5034151;28;20039;-71
2021/10/05 01:56:04;;;;;;;10.77;5.57;;;;;;;;;;5052074;28;20036;-71
2021/10/05 01:58:30;;;;;;;7.07;4.78;;;;;;;;;;5052080;28;20021;-71
2021/10/05 02:00:56;;;;;;;7.68;5.00;;;;;;;;;;5050930;28;20029;-70
2021/10/05 02:03:21;;;;;;;8.40;5.05;;;;;;;;;;5051878;28;20406;-70
2021/10/05 02:05:47;;;;;;;12.30;5.63;;;;;;;;;;5051979;28;20025;-70
2021/10/05 02:08:16;;;;;;;7.13;4.78;;;;;;;;;;5051939;28;20060;-70
2021/10/05 02:10:44;;;;;;;8.57;4.85;;;;;;;;;;5033292;28;20127;-70
2021/10/05 02:13:10;;;;;;;10.07;5.00;;;;;;;;;;5051949;28;20075;-70
2021/10/05 02:15:36;;;;;;;8.25;5.03;;;;;;;;;;5051942;28;20398;-70
2021/10/05 02:18:06;;;;;;;10.82;5.28;;;;;;;;;;5050358;28;20020;-70
2021/10/05 02:20:32;;;;;;;9.95;5.97;;;;;;;;;;5049761;28;20036;-70
2021/10/05 02:22:58;;;;;;;8.30;5.80;;;;;;;;;;5049886;28;20036;-69
2021/10/05 02:25:25;;;;;;;9.82;5.75;;;;;;;;;;5052047;28;20497;-70
2021/10/05 02:27:51;;;;;;;9.80;5.60;;;;;;;;;;5034036;28;20124;-70
2021/10/05 02:30:17;;;;;;;7.82;4.88;;;;;;;;;;5051415;28;20112;-70
2021/10/05 02:32:43;;;;;;;13.25;6.60;;;;;;;;;;5051815;28;20025;-69
2021/10/05 02:35:10;;;;;;;12.65;5.28;;;;;;;;;;5049290;28;20486;-70
2021/10/05 02:37:36;;;;;;;14.98;5.80;;;;;;;;;;5051624;28;20024;-70
2021/10/05 02:40:04;;;;;;;12.77;6.18;;;;;;;;;;5032670;28;20390;-70
2021/10/05 02:42:30;;;;;;;10.38;6.10;;;;;;;;;;5051311;28;20029;-69
2021/10/05 02:44:56;;;;;;;12.88;5.47;;;;;;;;;;5049489;28;20027;-70
2021/10/05 02:47:22;;;;;;;8.43;5.13;;;;;;;;;;5051362;28;20033;-69
2021/10/05 02:49:48;;;;;;;9.77;5.45;;;;;;;;;;5050520;28;20029;-70
2021/10/05 02:52:17;;;;;;;9.60;5.38;;;;;;;;;;5051173;28;20045;-70
2021/10/05 02:54:46;;;;;;;10.07;5.50;;;;;;;;;;5051307;28;20044;-69
2021/10/05 02:57:12;;;;;;;8.50;5.50;;;;;;;;;;5051252;28;20020;-69
2021/10/05 02:59:38;;;;;;;7.88;5.28;;;;;;;;;;5050684;28;20359;-70
2021/10/05 03:02:04;;;;;;;7.68;5.28;;;;;;;;;;5033405;28;20028;-70
2021/10/05 03:04:30;;;;;;;11.18;6.30;;;;;;;;;;5051460;28;20434;-70
2021/10/05 03:06:56;;;;;;;10.35;5.50;;;;;;;;;;5033278;28;20033;-70
2021/10/05 03:09:22;;;;;;;9.75;5.45;;;;;;;;;;5032719;28;20467;-69
2021/10/05 03:11:48;;;;;;;8.60;5.43;;;;;;;;;;5033126;28;20071;-69
2021/10/05 03:14:14;;;;;;;7.97;4.53;;;;;;;;;;5036920;28;20024;-69
2021/10/05 03:16:40;;;;;;;9.15;5.72;;;;;;;;;;5037169;28;20055;-70
2021/10/05 03:19:06;;;;;;;8.55;5.40;;;;;;;;;;5036333;28;20482;-70
2021/10/05 03:21:32;;;;;;;7.60;5.50;;;;;;;;;;5054777;28;20032;-70
2021/10/05 03:23:59;;;;;;;9.35;5.25;;;;;;;;;;5054823;28;20394;-70
2021/10/05 03:26:25;;;;;;;14.93;5.35;;;;;;;;;;5036961;28;20486;-69
2021/10/05 03:28:51;;;;;;;7.03;5.00;;;;;;;;;;5054504;28;20035;-70
2021/10/05 03:31:17;;;;;;;17.38;5.03;;;;;;;;;;5053930;28;20071;-70
2021/10/05 03:33:44;;;;;;;10.23;4.85;;;;;;;;;;5054624;28;20025;-70
2021/10/05 03:36:12;;;;;;;11.40;6.18;;;;;;;;;;5054732;28;20155;-70
2021/10/05 03:38:38;;;;;;;11.93;5.80;;;;;;;;;;5054655;28;20494;-70
2021/10/05 03:41:05;;;;;;;11.68;6.10;;;;;;;;;;5053800;28;20037;-70
2021/10/05 03:43:31;;;;;;;9.70;5.72;;;;;;;;;;5054736;28;20375;-71
2021/10/05 03:45:57;;;;;;;8.15;6.03;;;;;;;;;;5053585;28;20028;-70
2021/10/05 03:48:23;;;;;;;9.90;6.53;;;;;;;;;;5036654;28;20029;-70
2021/10/05 03:50:50;;;;;;;6.15;5.15;;;;;;;;;;5053505;28;20434;-70
2021/10/05 03:53:17;;;;;;;9.05;5.32;;;;;;;;;;5054060;28;20047;-70
2021/10/05 03:55:49;;;;;;;8.43;5.40;;;;;;;;;;5054812;28;20044;-71
2021/10/05 03:58:15;;;;;;;11.63;6.07;;;;;;;;;;5054330;28;20475;-70
2021/10/05 04:00:41;;;;;;;11.93;6.78;;;;;;;;;;5053266;28;20044;-70
2021/10/05 04:03:07;;;;;;;15.23;7.28;;;;;;;;;;5053939;28;20047;-70
2021/10/05 04:05:33;;;;;;;11.98;7.10;;;;;;;;;;5036115;28;20036;-70
2021/10/05 04:07:59;;;;;;;11.93;7.40;;;;;;;;;;5054825;28;20479;-70
2021/10/05 04:10:25;;;;;;;10.05;5.93;;;;;;;;;;5053237;28;20061;-70
2021/10/05 04:12:51;;;;;;;11.15;6.00;;;;;;;;;;5053846;28;20025;-70
2021/10/05 04:15:16;;;;;;;8.15;5.82;;;;;;;;;;5035872;28;20017;-70
2021/10/05 04:17:42;;;;;;;10.57;6.05;;;;;;;;;;5053748;28;20027;-70
2021/10/05 04:20:09;;;;;;;8.23;5.43;;;;;;;;;;5053203;28;20108;-69
2021/10/05 04:22:35;;;;;;;7.97;5.63;;;;;;;;;;5053445;28;20112;-69
2021/10/05 04:25:01;;;;;;;9.57;5.90;;;;;;;;;;5052198;28;20108;-69
2021/10/05 04:27:27;;;;;;;9.85;6.30;;;;;;;;;;5053694;28;20060;-70
2021/10/05 04:29:53;;;;;;;9.38;6.15;;;;;;;;;;5052838;28;20462;-70
2021/10/05 04:32:19;;;;;;;10.45;5.68;;;;;;;;;;5053704;28;20513;-70
2021/10/05 04:34:47;;;;;;;8.80;5.72;;;;;;;;;;5053538;28;20048;-70
2021/10/05 04:37:12;;;;;;;11.13;5.65;;;;;;;;;;5035708;28;20447;-70
2021/10/05 04:39:38;;;;;;;9.05;5.80;;;;;;;;;;5034788;28;20045;-70
2021/10/05 04:42:05;;;;;;;8.80;6.30;;;;;;;;;;5035490;28;20478;-69
2021/10/05 04:44:30;;;;;;;11.25;6.38;;;;;;;;;;5051668;28;20036;-70
2021/10/05 04:46:56;;;;;;;10.85;7.47;;;;;;;;;;5053140;28;20043;-70
2021/10/05 04:49:22;;;;;;;11.30;6.80;;;;;;;;;;5034576;28;20111;-70
2021/10/05 04:51:48;;;;;;;12.40;7.68;;;;;;;;;;5052986;28;20029;-70
2021/10/05 04:54:14;;;;;;;14.68;7.38;;;;;;;;;;5066628;22;20417;-73
2021/10/05 04:56:40;;;;;;;13.10;8.32;;;;;;;;;;5065507;28;20025;-72
2021/10/05 04:59:06;;;;;;;15.57;8.93;;;;;;;;;;5050759;28;20021;-72
2021/10/05 05:01:32;;;;;;;17.95;9.48;;;;;;;;;;5053408;28;20068;-71
2021/10/05 05:03:58;;;;;;;15.43;9.98;;;;;;;;;;5065260;28;20026;-70
2021/10/05 05:06:24;;;;;;;20.83;9.27;;;;;;;;;;5045830;28;20064;-72
2021/10/05 05:08:50;;;;;;;17.33;9.35;;;;;;;;;;5053030;28;20059;-72
2021/10/05 05:11:16;;;;;;;15.77;10.32;;;;;;;;;;5052126;28;20084;-71
2021/10/05 05:13:42;;;;;;;17.92;11.38;;;;;;;;;;5053215;28;20024;-71
2021/10/05 05:16:08;;;;;;;15.75;10.27;;;;;;;;;;5068284;28;20487;-71
2021/10/05 05:18:34;;;;;;;16.65;10.27;;;;;;;;;;5052965;28;20043;-73
2021/10/05 05:21:00;;;;;;;14.88;9.10;;;;;;;;;;5051038;28;20108;-74
2021/10/05 05:23:26;;;;;;;17.75;10.18;;;;;;;;;;5052663;28;20060;-76
2021/10/05 05:25:52;;;;;;;19.27;10.45;;;;;;;;;;5067881;28;20048;-72
2021/10/05 05:28:20;;;;;;;17.50;9.95;;;;;;;;;;5068127;28;20120;-73
2021/10/05 05:30:46;;;;;;;15.88;9.55;;;;;;;;;;5065689;28;20093;-73
2021/10/05 05:33:11;;;;;;;18.75;10.75;;;;;;;;;;5051331;28;20021;-71
2021/10/05 05:35:37;;;;;;;14.02;9.07;;;;;;;;;;5051918;28;20120;-71
2021/10/05 05:38:03;;;;;;;12.40;9.13;;;;;;;;;;5067846;28;20029;-72
2021/10/05 05:40:29;;;;;;;14.88;9.52;;;;;;;;;;5066489;28;20046;-72
2021/10/05 05:42:55;;;;;;;19.08;9.25;;;;;;;;;;5052073;28;20384;-73
2021/10/05 05:45:21;;;;;;;18.08;10.10;;;;;;;;;;5065194;28;20094;-72
2021/10/05 05:47:47;;;;;;;13.52;9.38;;;;;;;;;;5064790;28;20031;-73
2021/10/05 05:50:13;;;;;;;14.52;8.57;;;;;;;;;;5057966;28;20025;-73
2021/10/05 05:52:42;;;;;;;13.55;9.23;;;;;;;;;;5067322;28;20107;-72
2021/10/05 05:55:15;;;;;;;12.30;9.23;;;;;;;;;;5050676;28;20550;-72
2021/10/05 05:57:49;;;;;;;16.83;9.40;;;;;;;;;;5067468;28;20056;-72
2021/10/05 06:00:15;;;;;;;12.60;8.95;;;;;;;;;;5052016;28;20025;-73
2021/10/05 06:02:41;;;;;;;22.88;9.52;;;;;;;;;;5051860;28;20021;-71
2021/10/05 06:05:07;;;;;;;12.38;9.02;;;;;;;;;;5066847;28;20029;-72
2021/10/05 06:07:33;;;;;;;12.13;8.90;;;;;;;;;;5067133;28;20021;-73
2021/10/05 06:09:59;;;;;;;15.02;9.10;;;;;;;;;;5051486;28;20101;-73
2021/10/05 06:12:30;;;;;;;14.15;9.02;;;;;;;;;;5066995;28;20368;-74
2021/10/05 06:14:56;;;;;;;13.90;8.73;;;;;;;;;;5050261;28;20025;-73
2021/10/05 06:17:22;;;;;;;10.85;7.75;;;;;;;;;;5046629;28;20094;-74
2021/10/05 06:19:47;;;;;;;11.50;7.65;;;;;;;;;;5049294;28;20077;-71
2021/10/05 06:22:13;;;;;;;12.68;7.72;;;;;;;;;;5049700;28;20025;-72
2021/10/05 06:24:39;;;;;;;13.55;9.02;;;;;;;;;;5049904;28;20060;-72
2021/10/05 06:27:05;;;;;;;13.40;8.10;;;;;;;;;;5048850;28;20083;-71
2021/10/05 06:29:31;;;;;;;12.10;8.20;;;;;;;;;;5051242;28;20025;-75
2021/10/05 06:31:58;;;;;;;12.63;7.60;;;;;;;;;;5051809;28;20087;-75
2021/10/05 06:34:24;;;;;;;11.40;7.72;;;;;;;;;;5064271;28;20055;-74
2021/10/05 06:36:49;;;;;;;13.70;8.57;;;;;;;;;;5067187;28;20056;-74
2021/10/05 06:39:16;;;;;;;20.00;8.77;;;;;;;;;;5067021;28;20419;-75
2021/10/05 06:41:42;;;;;;;14.43;9.80;;;;;;;;;;5052816;28;20040;-74
2021/10/05 06:44:08;;;;;;;11.35;8.32;;;;;;;;;;5051778;28;20040;-74
2021/10/05 06:46:34;;;;;;;11.68;7.38;;;;;;;;;;5051034;28;20025;-73
2021/10/05 06:49:00;;;;;;;13.18;8.30;;;;;;;;;;5066473;28;20033;-73
2021/10/05 06:51:26;;;;;;;15.57;8.68;;;;;;;;;;5039356;28;20112;-72
2021/10/05 06:53:51;;;;;;;17.35;9.07;;;;;;;;;;5066747;28;20081;-74
2021/10/05 06:56:18;;;;;;;13.65;8.70;;;;;;;;;;5051832;28;20017;-74
2021/10/05 06:58:43;;;;;;;12.20;8.73;;;;;;;;;;5066972;28;20043;-74
2021/10/05 07:01:09;;;;;;;13.43;8.75;;;;;;;;;;5051610;28;20490;-74
2021/10/05 07:03:35;;;;;;;17.25;9.25;;;;;;;;;;5051449;28;20028;-71
2021/10/05 07:06:01;;;;;;;12.88;7.57;;;;;;;;;;5067031;28;20116;-72
2021/10/05 07:08:27;;;;;;;14.50;8.48;;;;;;;;;;5051617;28;20548;-72
2021/10/05 07:10:53;;;;;;;14.68;8.88;;;;;;;;;;5051149;28;20067;-72
2021/10/05 07:13:19;;;;;;;16.05;8.82;;;;;;;;;;5051214;28;20041;-73
2021/10/05 07:15:45;;;;;;;20.13;11.10;;;;;;;;;;5051523;28;20017;-75
2021/10/05 07:18:11;;;;;;;20.13;9.45;;;;;;;;;;5051006;28;20540;-72
2021/10/05 07:20:37;;;;;;;13.88;7.70;;;;;;;;;;5050196;28;20131;-72
2021/10/05 07:23:03;;;;;;;15.55;8.90;;;;;;;;;;5050995;28;20486;-73
2021/10/05 07:25:30;;;;;;;17.30;11.85;;;;;;;;;;5047326;28;20090;-70
2021/10/05 07:27:56;;;;;;;15.32;9.38;;;;;;;;;;5051231;28;20068;-72
2021/10/05 07:30:23;;;;;;;17.13;8.70;;;;;;;;;;5051026;28;20060;-75
2021/10/05 07:32:53;;;;;;;15.57;9.25;;;;;;;;;;5050990;28;20052;-73
2021/10/05 07:35:19;;;;;;;22.85;10.77;;;;;;;;;;5050673;28;20025;-71
2021/10/05 07:37:45;;;;;;;14.95;9.18;;;;;;;;;;5066051;28;20107;-72
2021/10/05 07:40:15;;;;;;;13.80;9.75;;;;;;;;;;5065764;28;20151;-72
2021/10/05 07:42:41;;;;;;;14.55;9.38;;;;;;;;;;5050913;28;20025;-74
2021/10/05 07:45:07;;;;;;;21.88;15.40;;;;;;;;;;5050765;28;20024;-72
2021/10/05 07:47:33;;;;;;;30.90;15.75;;;;;;;;;;5050870;28;20035;-70
2021/10/05 07:49:59;;;;;;;27.73;12.25;;;;;;;;;;5065643;28;20024;-69
2021/10/05 07:52:25;;;;;;;16.80;11.00;;;;;;;;;;5050911;28;20390;-72
2021/10/05 07:54:51;;;;;;;27.38;13.02;;;;;;;;;;5050794;28;20029;-72
2021/10/05 07:57:17;;;;;;;26.48;15.35;;;;;;;;;;5066742;28;20048;-72
2021/10/05 07:59:43;;;;;;;51.88;25.83;;;;;;;;;;5053253;28;20067;-71
2021/10/05 08:02:09;;;;;;;53.40;28.38;;;;;;;;;;5054346;28;20025;-71
2021/10/05 08:04:35;;;;;;;24.63;15.27;;;;;;;;;;5054357;28;20116;-71
2021/10/05 08:07:01;;;;;;;21.80;13.63;;;;;;;;;;5069102;28;20028;-70
2021/10/05 08:09:27;;;;;;;18.88;11.48;;;;;;;;;;5054223;28;20502;-71
2021/10/05 08:11:53;;;;;;;22.80;13.05;;;;;;;;;;5069738;28;20064;-69
2021/10/05 08:14:19;;;;;;;20.35;10.95;;;;;;;;;;5054035;28;20036;-71
2021/10/05 08:16:46;;;;;;;16.58;10.90;;;;;;;;;;5065643;28;20398;-71
2021/10/05 08:19:12;;;;;;;19.20;11.50;;;;;;;;;;5053994;28;20047;-70
2021/10/05 08:21:38;;;;;;;23.40;14.27;;;;;;;;;;5069617;28;20033;-72
2021/10/05 08:24:04;;;;;;;18.40;11.25;;;;;;;;;;5069510;28;20013;-70
2021/10/05 08:26:30;;;;;;;20.40;11.60;;;;;;;;;;5069585;28;20041;-73
2021/10/05 08:28:56;;;;;;;18.85;11.77;;;;;;;;;;5053964;28;20291;-70
2021/10/05 08:31:22;;;;;;;21.25;11.45;;;;;;;;;;5053977;28;20115;-70
2021/10/05 08:33:49;;;;;;;23.73;10.07;;;;;;;;;;5069508;28;20036;-71
2021/10/05 08:36:15;;;;;;;19.75;10.88;;;;;;;;;;5054334;28;20474;-72
2021/10/05 08:38:41;;;;;;;20.58;10.23;;;;;;;;;;5054099;28;20029;-70
2021/10/05 08:41:07;;;;;;;19.55;11.77;;;;;;;;;;5051684;28;20032;-71
2021/10/05 08:43:33;;;;;;;23.50;11.93;;;;;;;;;;5053798;28;20031;-71
2021/10/05 08:46:00;;;;;;;20.15;11.43;;;;;;;;;;5053756;28;20088;-74
2021/10/05 08:48:33;;;;;;;14.50;9.23;;;;;;;;;;5053471;28;20677;-73
2021/10/05 08:50:59;;;;;;;21.50;10.68;;;;;;;;;;5068346;28;20098;-73
2021/10/05 08:53:26;;;;;;;15.32;9.52;;;;;;;;;;5052596;28;20029;-72
2021/10/05 08:55:52;;;;;;;16.63;9.43;;;;;;;;;;5053769;28;20483;-73
2021/10/05 08:58:18;;;;;;;14.02;9.43;;;;;;;;;;5068286;28;20025;-73
2021/10/05 09:00:44;;;;;;;18.48;9.43;;;;;;;;;;5053582;28;20391;-73
2021/10/05 09:03:10;;;;;;;12.45;7.85;;;;;;;;;;5065200;28;20039;-73
2021/10/05 09:05:40;;;;;;;14.00;9.38;;;;;;;;;;5072167;28;20025;-73
2021/10/05 09:08:06;;;;;;;15.70;9.45;;;;;;;;;;5072245;28;20560;-73
2021/10/05 09:10:34;;;;;;;16.92;9.30;;;;;;;;;;5062180;28;20061;-73
2021/10/05 09:13:00;;;;;;;15.25;8.77;;;;;;;;;;5069240;28;20021;-73
2021/10/05 09:15:29;;;;;;;14.02;8.52;;;;;;;;;;5068897;28;20403;-73
2021/10/05 09:17:55;;;;;;;15.40;9.88;;;;;;;;;;5053281;28;20025;-74
2021/10/05 09:20:23;;;;;;;17.25;9.65;;;;;;;;;;5068553;28;20028;-73
2021/10/05 09:22:56;;;;;;;15.27;9.45;;;;;;;;;;5053472;28;20032;-73
2021/10/05 09:25:27;;;;;;;15.05;9.68;;;;;;;;;;5053405;28;20017;-72
2021/10/05 09:27:53;;;;;;;15.90;9.47;;;;;;;;;;5053239;28;20024;-72
2021/10/05 09:30:19;;;;;;;16.02;9.63;;;;;;;;;;5053413;28;20637;-72
2021/10/05 09:32:58;;;;;;;16.35;9.38;;;;;;;;;;5051939;28;20391;-73
2021/10/05 09:35:24;;;;;;;19.08;10.27;;;;;;;;;;5053664;28;20101;-72
2021/10/05 09:37:50;;;;;;;11.38;7.65;;;;;;;;;;5052663;28;20079;-73
2021/10/05 09:40:16;;;;;;;16.38;9.18;;;;;;;;;;5052599;28;20024;-72
2021/10/05 09:42:44;;;;;;;13.35;9.07;;;;;;;;;;5053232;28;20032;-72
2021/10/05 09:45:15;;;;;;;16.30;10.35;;;;;;;;;;5051713;28;20032;-74
2021/10/05 09:47:44;;;;;;;16.77;10.43;;;;;;;;;;5051579;28;20029;-72
2021/10/05 09:50:28;;;;;;;11.77;9.13;;;;;;;;;;5051767;28;20021;-72
2021/10/05 09:53:01;;;;;;;14.80;10.32;;;;;;;;;;5067747;28;20491;-73
2021/10/05 09:55:31;;;;;;;13.55;9.15;;;;;;;;;;5052907;28;20047;-73
2021/10/05 09:57:57;;;;;;;14.25;10.75;;;;;;;;;;5052808;28;20043;-74
2021/10/05 10:00:25;;;;;;;19.48;10.18;;;;;;;;;;5051912;28;20031;-73
2021/10/05 10:02:52;;;;;;;17.60;10.93;;;;;;;;;;5052743;28;20029;-73
2021/10/05 10:05:19;;;;;;;15.02;10.88;;;;;;;;;;5052284;28;20025;-73
2021/10/05 10:07:46;;;;;;;18.67;10.13;;;;;;;;;;5067977;28;20021;-72
2021/10/05 10:10:14;;;;;;;16.73;10.60;;;;;;;;;;5051620;28;20029;-72
2021/10/05 10:12:46;;;;;;;17.42;10.00;;;;;;;;;;5052082;28;20025;-73
2021/10/05 10:15:12;;;;;;;18.33;9.95;;;;;;;;;;5051981;28;20028;-72
2021/10/05 10:17:38;;;;;;;17.05;10.00;;;;;;;;;;5052157;28;20032;-72
2021/10/05 10:20:05;;;;;;;16.00;10.23;;;;;;;;;;5051104;28;20013;-70
2021/10/05 10:22:41;;;;;;;15.32;10.90;;;;;;;;;;5051792;28;20021;-72
2021/10/05 10:25:19;;;;;;;19.83;10.23;;;;;;;;;;5052027;28;20025;-72
2021/10/05 10:27:45;;;;;;;17.73;10.18;;;;;;;;;;5067178;28;20086;-73
2021/10/05 10:30:11;;;;;;;16.65;10.13;;;;;;;;;;5050548;28;20017;-73
2021/10/05 10:32:53;;;;;;;14.48;10.02;;;;;;;;;;5051868;28;20025;-73
2021/10/05 10:35:19;;;;;;;18.90;10.30;;;;;;;;;;5051530;28;20017;-73
2021/10/05 10:37:55;;;;;;;17.48;10.98;;;;;;;;;;5051840;28;20082;-73
2021/10/05 10:40:33;;;;;;;18.05;11.27;;;;;;;;;;5051389;28;20509;-74
2021/10/05 10:43:09;;;;;;;16.65;11.77;;;;;;;;;;5051797;28;20039;-74
2021/10/05 10:45:42;;;;;;;23.25;13.32;;;;;;;;;;5051811;28;20483;-76
2021/10/05 10:48:07;;;;;;;21.85;12.80;;;;;;;;;;5050857;28;20043;-73
2021/10/05 10:50:35;;;;;;;17.35;12.60;;;;;;;;;;5050962;28;20021;-72
2021/10/05 10:55:33;;;;;;;20.35;13.27;;;;;;;;;;5068558;28;20072;-71
2021/10/05 10:57:59;;;;;;;19.17;14.35;;;;;;;;;;5070138;28;20028;-72
2021/10/05 11:00:29;;;;;;;16.80;13.82;;;;;;;;;;5036264;28;20049;-72
2021/10/05 11:02:59;;;;;;;21.02;15.18;;;;;;;;;;5070053;28;20485;-71
2021/10/05 11:05:26;;;;;;;21.85;14.00;;;;;;;;;;5071216;28;20089;-71
2021/10/05 11:07:55;;;;;;;18.08;14.15;;;;;;;;;;5071076;28;20435;-71
2021/10/05 11:10:31;;;;;;;23.52;15.82;;;;;;;;;;5070528;28;20052;-71
2021/10/05 11:12:59;;;;;;;23.77;15.88;;;;;;;;;;5070052;28;20474;-72
2021/10/05 11:15:32;;;;;;;22.13;14.40;;;;;;;;;;5071166;28;20035;-69
2021/10/05 11:18:04;;;;;;;22.00;16.23;;;;;;;;;;5069898;28;20021;-71
2021/10/05 11:20:30;;;;;;;18.58;14.82;;;;;;;;;;5070521;28;20159;-72
2021/10/05 11:22:59;;;;;;;20.35;15.10;;;;;;;;;;5071313;28;20068;-72
2021/10/05 11:25:25;;;;;;;22.13;15.68;;;;;;;;;;5071225;28;20478;-71
2021/10/05 11:27:51;;;;;;;23.25;15.18;;;;;;;;;;5071063;28;20028;-72
2021/10/05 11:30:17;;;;;;;21.25;15.00;;;;;;;;;;5070259;28;20047;-72
2021/10/05 11:32:48;;;;;;;22.02;15.50;;;;;;;;;;5061863;28;20100;-72
2021/10/05 11:35:14;;;;;;;;;;;;;;;;;;5054819;28;20027;-72
2021/10/05 11:37:40;;;;;;;19.60;14.13;;;;;;;;;;5054587;28;19904;-72
2021/10/05 11:40:06;;;;;;;20.27;15.50;;;;;;;;;;5054040;28;20029;-72
2021/10/05 11:42:32;;;;;;;19.45;14.43;;;;;;;;;;5054899;28;20497;-72
2021/10/05 11:45:05;;;;;;;18.02;14.27;;;;;;;;;;5054598;28;20424;-72
2021/10/05 11:47:32;;;;;;;19.73;14.05;;;;;;;;;;5054912;28;20036;-72
2021/10/05 11:50:00;;;;;;;16.63;12.43;;;;;;;;;;5069136;28;20104;-72
2021/10/05 11:52:29;;;;;;;17.67;13.68;;;;;;;;;;5053517;28;20021;-72
2021/10/05 11:54:55;;;;;;;18.40;13.20;;;;;;;;;;5053108;28;20462;-72
2021/10/05 11:57:28;;;;;;;17.05;13.43;;;;;;;;;;5054185;28;20032;-72
2021/10/05 12:00:00;;;;;;;20.00;13.05;;;;;;;;;;5053759;28;20032;-72
2021/10/05 12:02:26;;;;;;;19.20;13.38;;;;;;;;;;5053496;28;20394;-72
2021/10/05 12:04:52;;;;;;;20.13;14.02;;;;;;;;;;5054563;28;20033;-72
2021/10/05 12:07:20;;;;;;;16.83;12.95;;;;;;;;;;5054300;28;20036;-71
2021/10/05 12:10:06;;;;;;;21.23;12.43;;;;;;;;;;5052500;28;20513;-71
2021/10/05 12:12:36;;;;;;;18.95;13.20;;;;;;;;;;5054493;28;20065;-70
2021/10/05 12:15:08;;;;;;;17.20;11.90;;;;;;;;;;5053723;28;20040;-71
2021/10/05 12:17:34;;;;;;;16.60;12.98;;;;;;;;;;5054757;28;20025;-72
2021/10/05 12:20:03;;;;;;;20.88;16.10;;;;;;;;;;5053868;28;20043;-72
2021/10/05 12:22:39;;;;;;;26.77;16.90;;;;;;;;;;5056644;28;20021;-72
2021/10/05 12:25:07;;;;;;;18.30;15.45;;;;;;;;;;5052608;28;20104;-72
2021/10/05 12:27:33;;;;;;;24.42;18.10;;;;;;;;;;5054384;28;20076;-72
2021/10/05 12:29:58;;;;;;;24.92;18.65;;;;;;;;;;5067740;28;20045;-71
2021/10/05 12:32:44;;;;;;;29.65;18.60;;;;;;;;;;5053905;28;20104;-72
2021/10/05 12:35:22;;;;;;;25.60;20.33;;;;;;;;;;5069034;28;20489;-72
2021/10/05 12:38:10;;;;;;;22.90;18.85;;;;;;;;;;5069267;28;20021;-72
2021/10/05 12:40:42;;;;;;;31.90;19.27;;;;;;;;;;5053360;28;20047;-72
2021/10/05 12:43:09;;;;;;;20.55;16.73;;;;;;;;;;5071881;28;20427;-73
2021/10/05 12:45:37;;;;;;;25.52;17.58;;;;;;;;;;5055196;28;20056;-72
2021/10/05 12:48:04;;;;;;;21.63;16.52;;;;;;;;;;5056036;28;20025;-72
2021/10/05 12:50:34;;;;;;;20.00;15.52;;;;;;;;;;5055863;28;20059;-72
2021/10/05 12:53:02;;;;;;;20.13;14.70;;;;;;;;;;5070829;28;20024;-72
2021/10/05 12:55:28;;;;;;;17.58;13.63;;;;;;;;;;5062888;28;20482;-71
2021/10/05 12:57:55;;;;;;;18.27;12.70;;;;;;;;;;5062538;28;20029;-71
2021/10/05 13:00:22;;;;;;;15.93;12.38;;;;;;;;;;5060197;28;20518;-71
2021/10/05 13:02:48;;;;;;;17.80;12.00;;;;;;;;;;5055938;28;20082;-72
2021/10/05 13:05:14;;;;;;;11.07;9.48;;;;;;;;;;5055895;28;20079;-71
2021/10/05 13:07:42;;;;;;;15.93;10.15;;;;;;;;;;5073803;28;20028;-72
2021/10/05 13:10:09;;;;;;;12.43;9.80;;;;;;;;;;5073992;28;20126;-72
2021/10/05 13:12:35;;;;;;;15.85;10.27;;;;;;;;;;5075757;28;20437;-73
2021/10/05 13:15:01;;;;;;;11.50;8.85;;;;;;;;;;5075983;28;20099;-70
2021/10/05 13:17:27;;;;;;;11.68;8.05;;;;;;;;;;5073749;28;20093;-72
2021/10/05 13:19:53;;;;;;;11.90;6.97;;;;;;;;;;5070542;28;20020;-72
2021/10/05 13:22:19;;;;;;;10.13;7.35;;;;;;;;;;5052853;28;20036;-72
2021/10/05 13:24:45;;;;;;;8.73;6.75;;;;;;;;;;5051458;28;20068;-71
2021/10/05 13:27:12;;;;;;;11.77;6.82;;;;;;;;;;5051601;28;20029;-71
2021/10/05 13:29:38;;;;;;;8.93;6.50;;;;;;;;;;5051697;28;20056;-73
2021/10/05 13:32:05;;;;;;;7.43;6.22;;;;;;;;;;5052337;28;20121;-72
2021/10/05 13:34:31;;;;;;;6.80;5.80;;;;;;;;;;5080440;28;20455;-72
2021/10/05 13:36:56;;;;;;;7.18;5.97;;;;;;;;;;5072323;28;20060;-72
2021/10/05 13:39:24;;;;;;;9.68;6.72;;;;;;;;;;5072390;28;20035;-72
2021/10/05 13:41:50;;;;;;;9.38;7.18;;;;;;;;;;5072567;28;20020;-73
2021/10/05 13:44:17;;;;;;;7.75;6.43;;;;;;;;;;5072008;28;20024;-72
2021/10/05 13:46:44;;;;;;;7.88;6.97;;;;;;;;;;5072676;28;20498;-72
2021/10/05 13:49:10;;;;;;;11.55;8.07;;;;;;;;;;5071529;28;20111;-71
2021/10/05 13:51:35;;;;;;;7.85;7.07;;;;;;;;;;5052058;28;20159;-71
2021/10/05 13:54:01;;;;;;;10.02;7.65;;;;;;;;;;5067171;28;20487;-70
2021/10/05 13:56:27;;;;;;;8.68;7.00;;;;;;;;;;5050764;28;20445;-71
2021/10/05 13:58:54;;;;;;;8.45;7.03;;;;;;;;;;5050437;28;20119;-72
2021/10/05 14:01:20;;;;;;;9.18;7.75;;;;;;;;;;5050583;28;20029;-72
2021/10/05 14:03:46;;;;;;;9.50;7.40;;;;;;;;;;5051729;28;20025;-71
2021/10/05 14:06:13;;;;;;;8.43;7.00;;;;;;;;;;5052070;28;20037;-71
2021/10/05 14:08:39;;;;;;;8.77;6.50;;;;;;;;;;5050056;28;20029;-71
2021/10/05 14:11:05;;;;;;;7.85;6.40;;;;;;;;;;5050885;28;20082;-71
2021/10/05 14:13:31;;;;;;;9.48;6.53;;;;;;;;;;5050483;28;20017;-72
2021/10/05 14:15:57;;;;;;;7.70;6.03;;;;;;;;;;5051819;28;20381;-72
2021/10/05 14:18:23;;;;;;;7.72;6.72;;;;;;;;;;5050445;28;20035;-71
2021/10/05 14:20:50;;;;;;;7.35;6.40;;;;;;;;;;5049123;28;20031;-71
2021/10/05 14:23:17;;;;;;;8.52;6.90;;;;;;;;;;5051499;28;20074;-72
2021/10/05 14:25:43;;;;;;;7.55;5.40;;;;;;;;;;5050016;28;20048;-71
2021/10/05 14:28:09;;;;;;;7.85;6.75;;;;;;;;;;5051789;28;20025;-71
2021/10/05 14:30:35;;;;;;;6.13;5.47;;;;;;;;;;5050798;28;20363;-72